Weather at Riga International Airport

Public forecast

Using degrees Celsius for public forecast. Weather courtesy of forecast.io.

Current aviation weather report (METAR) for Riga International Airport

2024/05/18 10:20 (retrieved 39 minutes ago)

EVRA 181020Z VRB02KT CAVOK 24/11 Q1017 NOSIG

Aviation forecast (TAF) for Riga International Airport

2024/05/18 09:03 (retrieved 2 hours ago)

TAF TAF EVRA 180801Z 1809/1909 15005KT CAVOK PROB40 TEMPO 1822/1903 0700 FG SCT002